WEATHER DATA

YESTERDAY
Time Temp. Dewp. Hum. Wind dir Wind speed Wind gust Bar. 1h Prec. 24h Prec.
00:04 2.7 1.7 93 206 0.8 2.8 1009.6 0.0000 0.0000
00:14 2.7 1.7 93 185 0.8 2.5 1009.6 0.0000 0.0000
00:24 2.7 1.7 93 205 0.8 2.5 1009.4 0.0000 0.0000
00:34 2.7 1.7 93 214 1.1 2.8 1009.3 0.0000 0.0000
00:55 2.7 1.7 93 140 1.7 4.4 1009.1 0.0000 0.0000
01:04 2.7 1.7 93 185 1.1 4.2 1009 0.0000 0.0000
01:14 2.8 1.8 93 217 1.7 2.8 1009 0.0000 0.0000
01:35 2.8 1.8 93 227 1.1 3.3 1008.9 0.0000 0.0000
01:45 2.8 1.8 93 221 1.1 3.3 1008.8 0.0000 0.0000
01:55 2.8 1.8 93 220 0.8 2.5 1008.8 0.0000 0.0000
02:15 2.9 1.7 92 199 0.8 1.9 1008.4 0.0000 0.0000
02:25 2.9 1.7 92 216 0.8 1.9 1008.3 0.0000 0.0000
02:36 2.9 1.7 92 218 0.8 1.9 1008.1 0.0000 0.0000
02:46 2.9 1.7 92 212 1.1 2.8 1008.1 0.0000 0.0000
02:56 2.9 1.7 92 204 1.1 3.6 1007.9 0.0000 0.0000
03:05 2.9 1.7 92 201 1.1 2.5 1007.8 0.0000 0.0000
03:16 2.9 1.7 92 201 1.1 2.5 1007.6 0.0000 0.0000
03:26 2.9 1.7 92 210 1.1 2.8 1007.5 0.0000 0.0000
03:36 2.9 1.9 93 216 1.1 2.8 1007.4 0.0000 0.0000
03:46 2.9 1.7 92 209 1.1 2.8 1007.2 0.0000 0.0000
03:56 2.9 1.7 92 217 1.7 4.2 1007.1 0.0000 0.0000
04:06 2.8 1.6 92 193 1.1 3.3 1006.9 0.0000 0.0000
04:16 2.8 1.6 92 216 1.1 3.6 1006.8 0.0000 0.0000
04:27 2.7 1.5 92 193 1.1 2.8 1006.8 0.0000 0.0000
04:37 2.7 1.5 92 215 1.1 3.6 1006.7 0.0000 0.0000
04:47 2.7 1.5 92 212 1.1 2.8 1006.8 0.0000 0.0000
04:57 2.7 1.5 92 186 1.1 3.6 1006.5 0.0000 0.0000
05:07 2.7 1.5 92 193 1.1 2.8 1006.4 0.0000 0.0000
05:17 2.7 1.5 92 183 1.1 5.3 1006.3 0.0000 0.0000
05:27 2.7 1.5 92 200 1.1 2.8 1006.4 0.0000 0.0000
05:38 2.7 1.5 92 217 0.8 1.9 1006.4 0.0000 0.0000
05:48 2.7 1.5 92 199 1.1 2.8 1006.3 0.0000 0.0000
05:57 2.7 1.5 92 206 1.7 5 1006 0.0000 0.0000
06:07 2.7 1.5 92 196 1.7 3.3 1006.1 0.0000 0.0000
06:18 2.7 1.5 92 189 1.7 4.2 1006 0.0000 0.0000
06:28 2.7 1.5 92 218 1.9 5.3 1006.1 0.0000 0.0000
06:38 2.7 1.5 92 217 2.5 5.8 1006.2 0.0000 0.0000
06:48 2.7 1.5 92 217 1.9 4.2 1006 0.0000 0.0000
06:58 2.7 1.5 92 223 2.8 7.8 1005.9 0.0000 0.0000
07:08 2.7 1.4 91 206 2.5 6.1 1005.7 0.0000 0.0000
07:18 2.7 1.4 91 226 1.9 5.3 1005.8 0.0000 0.0000
07:29 2.7 1.5 92 216 1.9 4.4 1005.6 0.0000 0.0000
07:39 2.7 1.5 92 225 1.9 5 1005.5 0.0000 0.0000
07:48 2.8 1.5 91 220 2.5 6.7 1005.5 0.0000 0.0000
07:59 2.8 1.5 91 229 2.5 8.6 1005.5 0.0000 0.0000
08:09 2.7 1.4 91 222 2.5 5.8 1005.3 0.0000 0.0000
08:19 2.8 1.5 91 224 2.8 7.8 1005.2 0.0000 0.0000
08:29 2.8 1.5 91 232 1.9 6.1 1005.2 0.0000 0.0000
08:39 2.8 1.5 91 222 2.5 8.3 1005.2 0.0000 0.0000
08:49 2.8 1.5 91 217 1.9 7.8 1005.1 0.0000 0.0000
08:57 2.7 1.1 89 225 2.5 9.4 1005.1 0.0000 0.0000
09:11 2.8 1.3 90 205 1.9 7.8 1005.1 0.0000 0.0000
09:21 2.8 1.3 90 215 1.9 7.5 1004.9 0.0000 0.0000
09:31 2.8 1.2 89 223 1.9 5.8 1004.8 0.0000 0.0000
09:41 2.8 1.2 89 220 2.8 5.8 1004.8 0.0000 0.0000
09:50 2.8 1 88 206 2.8 10.6 1004.7 0.0000 0.0000
10:01 2.8 0.9 87 218 2.5 6.7 1004.5 0.0000 0.0000
10:11 2.9 1 87 219 1.7 5.3 1004.4 0.0000 0.0000
10:21 2.9 1 87 210 2.5 6.1 1004.3 0.0000 0.0000
10:31 3 1.1 87 216 2.5 6.9 1004.1 0.0000 0.0000
10:41 3.1 1 86 206 2.5 6.7 1003.9 0.0000 0.0000
10:51 3.1 1 86 203 3.3 7.5 1003.8 0.0000 0.0000
11:01 3.1 1 86 199 1.9 9.7 1003.6 0.0000 0.0000
11:12 3.2 1.1 86 189 2.5 4.4 1003.2 0.0000 0.0000
11:22 3.3 1.2 86 210 1.7 5.8 1003.1 0.0000 0.0000
11:32 3.4 1.3 86 199 2.5 5.3 1003 0.0000 0.0000
11:42 3.5 1.5 87 181 2.5 5.8 1002.7 0.0000 0.0000
11:49 3.6 1.6 87 202 1.9 9.7 1002.6 0.0000 0.0000
11:59 3.6 1.5 86 209 3.3 7.8 1002.4 0.0000 0.0000
12:09 3.7 1.7 87 214 2.5 5.8 1002.3 0.0000 0.0000
12:19 3.8 1.5 85 200 2.8 6.9 1002.2 0.0000 0.0000
12:29 3.8 1.5 85 203 2.8 8.9 1002 0.0000 0.0000
12:40 3.9 1.6 85 209 2.5 8.3 1001.9 0.0000 0.0000
12:50 3.9 1.6 85 190 2.8 5.8 1001.8 0.0000 0.0000
13:00 4 1.7 85 212 2.8 8.3 1001.7 0.0000 0.0000
13:10 4.1 1.8 85 191 2.5 6.1 1001.6 0.0000 0.0000
13:20 4.1 1.8 85 204 2.5 6.7 1001.5 0.0000 0.0000
13:30 4.2 1.9 85 220 2.5 6.1 1001.3 0.0000 0.0000
13:40 4.2 1.7 84 186 2.5 6.1 1001.1 0.0000 0.0000
13:51 4.2 1.7 84 209 2.5 6.9 1001.1 0.0000 0.0000
14:01 4.3 1.8 84 194 1.7 4.4 1001 0.0000 0.0000
14:10 4.3 1.8 84 198 2.5 6.1 1001 0.0000 0.0000
14:20 4.3 2 85 218 1.9 4.2 1001 0.0000 0.0000
14:31 4.3 2 85 199 1.7 3.3 1000.9 0.0000 0.0000
14:41 4.3 2 85 195 1.7 5.3 1000.8 0.0000 0.0000
14:51 4.3 2 85 200 1.7 4.2 1000.7 0.0000 0.0000
15:01 4.3 2 85 195 1.7 5 1000.6 0.0000 0.0000
15:11 4.3 2 85 212 1.9 3.6 1000.5 0.0000 0.0000
15:21 4.3 2 85 193 1.9 4.4 1000.3 0.0000 0.0000
15:31 4.3 2 85 204 2.5 6.7 1000.3 0.0000 0.0000
15:42 4.3 2 85 193 1.7 4.4 1000.1 0.0000 0.0000
15:52 4.3 2 85 190 1.7 4.2 1000.1 0.0000 0.0000
16:01 4.3 2 85 221 1.7 4.4 1000.1 0.0000 0.0000
16:13 4.2 1.9 85 185 1.9 7.5 999.8 0.0000 0.0000
16:24 4.2 1.9 85 196 2.5 5 999.5 0.0000 0.0000
16:34 4.2 1.9 85 200 1.9 4.4 999.4 0.0000 0.0000
16:44 4.2 1.9 85 193 1.9 5.8 999.2 0.0000 0.0000
16:53 4.1 1.8 85 173 1.7 4.2 999 0.0000 0.0000
17:04 4 1.5 84 194 1.7 3.6 998.9 0.0000 0.0000
17:14 3.9 1.6 85 189 1.7 6.1 998.9 0.0000 0.0000
17:24 3.8 1.5 85 213 1.9 5 998.9 0.0000 0.0000
17:34 3.6 1.3 85 207 1.9 5.8 998.9 0.0000 0.0000
17:44 3.5 1.2 85 210 1.7 4.4 998.9 0.0000 0.0000
17:54 3.4 1.1 85 217 1.1 2.8 998.9 0.0000 0.0000
18:04 3.3 1.2 86 220 1.1 2.5 998.7 0.0000 0.0000
18:15 3.2 1.1 86 215 1.1 3.3 998.7 0.0000 0.0000
18:25 3.1 1 86 204 1.7 3.3 998.7 0.0000 0.0000
18:34 3 0.9 86 207 1.1 3.3 998.8 0.0000 0.0000
18:45 2.9 0.8 86 202 1.7 5 998.7 0.0000 0.0000
18:55 2.8 0.7 86 194 1.9 4.4 998.6 0.0000 0.0000
19:05 2.7 0.6 86 196 1.7 3.3 998.6 0.0000 0.0000
19:15 2.7 0.6 86 191 1.7 4.2 998.5 0.0000 0.0000
19:26 2.6 0.7 87 196 1.7 4.4 998.4 0.0000 0.0000
19:35 2.6 0.5 86 199 1.9 5 998.3 0.0000 0.0000
19:45 2.5 0.6 87 180 1.7 4.2 998.2 0.0000 0.0000
19:55 2.5 0.6 87 176 1.7 4.4 998.1 0.0000 0.0000
20:06 2.5 0.6 87 190 1.7 4.4 998 0.0000 0.0000
20:16 2.4 0.3 86 181 1.7 4.2 997.8 0.0000 0.0000
20:26 2.4 0.3 86 196 1.9 4.2 997.7 0.0000 0.0000
20:36 2.4 0.3 86 194 1.9 6.1 997.6 0.0000 0.0000
20:46 2.4 0.3 86 190 1.7 5 997.5 0.0000 0.0000
20:56 2.5 0.4 86 190 2.5 6.1 997.2 0.0000 0.0000
21:06 2.6 0.5 86 170 1.9 5.3 997 0.0000 0.0000
21:17 2.7 0.6 86 173 1.7 5.3 996.7 0.0000 0.0000
21:27 2.7 0.8 87 171 1.7 3.6 996.5 0.0000 0.0000
21:36 2.8 0.7 86 158 1.1 2.8 996.3 0.0000 0.0000
21:47 2.8 0.7 86 148 2.5 5.8 996 0.0000 0.0000
21:57 2.7 0.6 86 185 2.5 4.4 995.8 0.0000 0.0000
22:07 2.7 0.6 86 178 1.9 6.7 995.6 0.0000 0.0000
22:17 2.6 0.5 86 136 1.9 4.2 995.5 0.0000 0.0000
22:28 2.6 0.5 86 143 1.9 5 995.3 0.0000 0.0000
22:37 2.5 0.4 86 153 1.9 6.7 995.2 0.0000 0.0000
22:47 2.5 0.4 86 163 1.9 5 995 0.0000 0.0000
22:57 2.4 0.5 87 178 2.8 6.7 994.9 0.0000 0.0000
23:08 2.4 0.3 86 154 2.5 5.8 994.7 0.0000 0.0000
23:18 2.4 0.3 86 156 1.9 5 994.6 0.0000 0.0000
23:27 2.3 0.2 86 163 1.9 5.8 994.5 0.0000
23:38 2.3 0.2 86 139 2.5 5.8 994.2 0.0000
23:48 2.2 0.3 87 133 2.5 5.8 994 0.0000
23:58 2.2 0.1 86 130 1.9 5 993.8 0.0000

DAY STATISTIC

2020-12-03
TEMPERATURE
AVERAGE
3.1
HIGH
4.3
14:01
LOW
2.2
23:48
PRESSURE
AVERAGE
1002.3
HIGH
1009.6
00:04
LOW
993.8
23:58
DEWPOINT
AVERAGE
1.3
HIGH
2.0
14:20
LOW
0.1
23:58
HUMIDITY
AVERAGE
88
HIGH
93
00:04
LOW
84
13:40
WIND SPEED
AVERAGE
1.8
HIGH
3.3
10:51
WIND GUST
AVERAGE
5.0
HIGH
10.6
09:50
WIND DIRECTION
PREVAILING
S
48.6%
N
0.0
NE
0.0
E
0.0
SE
7.1
S
48.6
SW
44.3
W
0.0
NW
0.0
PRECIPITATION
RAIN HOUR
0.0
RAIN DAY
0.0
TEMPERATURE (°C)
LOW
2.2
HIGH
4.3
AVERAGE
3.1
PRESSURE (hpa)
LOW
993.8
HIGH
1009.6
AVERAGE
1002.3
DEVICE